Time;durP1;ratioP1;P1;durP2;ratioP2;P2;SDS_P1;SDS_P2;PMS_P1;PMS_P2;Temp;Humidity;BMP_temperature;BMP_pressure;BME280_temperature;BME280_humidity;BME280_pressure;Samples;Min_cycle;Max_cycle;Signal;HPM_P1;HPM_P2
2022/09/27 00:02:23;;;;;;;1.80;1.20;;;13.60;99.90;;;;;;1958339;72;22146;-80
2022/09/27 00:05:15;;;;;;;1.90;1.62;;;13.70;99.90;;;;;;1938935;73;21142;-79
2022/09/27 00:08:06;;;;;;;3.72;1.55;;;13.70;99.90;;;;;;1933728;73;21216;-79
2022/09/27 00:11:01;;;;;;;2.12;1.35;;;13.70;99.90;;;;;;1923056;73;21200;-79
2022/09/27 00:13:53;;;;;;;3.40;1.20;;;13.60;99.90;;;;;;1931648;73;21062;-79
2022/09/27 00:16:45;;;;;;;2.15;1.30;;;13.60;99.90;;;;;;1918676;73;21094;-79
2022/09/27 00:19:36;;;;;;;1.67;1.15;;;13.50;99.90;;;;;;1917424;75;21121;-79
2022/09/27 00:22:28;;;;;;;1.87;1.10;;;13.40;99.90;;;;;;1936549;73;21168;-80
2022/09/27 00:27:59;;;;;;;2.00;1.32;;;13.40;99.90;;;;;;1940246;72;22181;-78
2022/09/27 00:30:53;;;;;;;2.37;1.10;;;13.50;99.90;;;;;;1916599;74;21066;-78
2022/09/27 00:33:45;;;;;;;3.35;1.30;;;13.40;99.90;;;;;;1921732;74;21076;-80
2022/09/27 00:36:36;;;;;;;3.08;1.35;;;13.40;99.90;;;;;;1922657;74;21576;-78
2022/09/27 00:39:28;;;;;;;2.10;1.25;;;13.50;99.90;;;;;;1924832;74;21078;-78
2022/09/27 00:42:19;;;;;;;1.87;1.20;;;13.50;99.90;;;;;;1922928;74;21047;-78
2022/09/27 00:47:55;;;;;;;2.83;1.10;;;13.50;99.90;;;;;;1938939;72;22126;-78
2022/09/27 00:50:50;;;;;;;3.33;1.40;;;13.50;99.90;;;;;;1884748;75;21109;-79
2022/09/27 00:53:45;;;;;;;2.15;1.52;;;13.40;99.90;;;;;;1912592;75;21571;-79
2022/09/27 00:56:37;;;;;;;2.05;1.20;;;13.40;99.90;;;;;;1894305;75;21186;-79
2022/09/27 00:59:32;;;;;;;2.35;1.25;;;13.40;99.90;;;;;;1886563;75;21099;-79
2022/09/27 01:02:24;;;;;;;2.33;1.30;;;13.40;99.90;;;;;;1884417;75;21054;-80
2022/09/27 01:07:55;;;;;;;3.25;1.20;;;13.30;99.90;;;;;;1940315;72;22128;-78
2022/09/27 01:10:51;;;;;;;1.62;1.15;;;13.40;99.90;;;;;;1901473;74;21054;-78
2022/09/27 01:13:51;;;;;;;1.50;1.07;;;13.40;99.90;;;;;;1885146;75;21113;-78
2022/09/27 01:16:46;;;;;;;2.12;1.42;;;13.30;99.90;;;;;;1888443;75;21874;-78
2022/09/27 01:19:49;;;;;;;2.85;2.00;;;13.30;99.90;;;;;;1899690;75;21338;-78
2022/09/27 01:22:44;;;;;;;4.37;1.90;;;13.30;99.90;;;;;;1901910;75;21115;-78
2022/09/27 01:25:48;;;;;;;3.87;2.60;;;13.30;99.90;;;;;;1891415;75;21102;-78
2022/09/27 01:28:49;;;;;;;3.45;1.92;;;13.40;99.90;;;;;;1885836;75;21136;-78
2022/09/27 01:31:44;;;;;;;2.30;1.82;;;13.30;99.90;;;;;;1911038;75;21047;-78
2022/09/27 01:34:40;;;;;;;3.02;1.87;;;13.20;99.90;;;;;;1889583;75;21146;-78
2022/09/27 01:37:36;;;;;;;3.17;1.75;;;13.20;99.90;;;;;;1896878;75;21156;-78
2022/09/27 01:40:31;;;;;;;3.87;2.60;;;13.20;99.90;;;;;;1905434;75;21051;-79
2022/09/27 01:43:30;;;;;;;2.83;2.20;;;13.20;99.90;;;;;;1907142;75;21149;-78
2022/09/27 01:49:04;;;;;;;4.00;2.40;;;13.30;99.90;;;;;;1942577;72;22242;-78
2022/09/27 01:51:59;;;;;;;3.42;2.35;;;13.30;99.90;;;;;;1891881;75;21054;-78
2022/09/27 01:57:32;;;;;;;2.60;2.33;;;13.20;99.90;;;;;;1943732;72;22173;-78
2022/09/27 02:00:25;;;;;;;3.47;2.42;;;13.10;99.90;;;;;;1917442;75;21106;-80
2022/09/27 02:03:20;;;;;;;2.42;2.00;;;13.00;99.90;;;;;;1947719;73;21133;-78
2022/09/27 02:09:04;;;;;;;2.70;1.70;;;13.20;99.90;;;;;;1916701;72;22211;-78
2022/09/27 02:14:39;;;;;;;2.80;1.40;;;13.20;99.90;;;;;;1921930;72;22139;-78
2022/09/27 02:17:36;;;;;;;2.02;1.10;;;13.20;99.90;;;;;;1908992;75;21072;-78
2022/09/27 02:20:31;;;;;;;1.95;1.10;;;13.20;99.90;;;;;;1902603;74;21072;-80
2022/09/27 02:23:25;;;;;;;2.30;1.40;;;13.20;99.90;;;;;;1884320;76;21135;-78
2022/09/27 02:26:21;;;;;;;1.75;1.40;;;13.20;99.90;;;;;;1895469;75;21187;-78
2022/09/27 02:29:16;;;;;;;2.50;1.50;;;13.20;99.90;;;;;;1893222;74;21136;-79
2022/09/27 02:32:09;;;;;;;2.72;1.27;;;13.20;99.90;;;;;;1906791;75;21098;-79
2022/09/27 02:35:04;;;;;;;1.65;1.05;;;13.20;99.90;;;;;;1894374;75;21056;-78
2022/09/27 02:37:56;;;;;;;2.15;1.35;;;13.20;99.90;;;;;;1884734;75;21179;-78
2022/09/27 02:40:48;;;;;;;3.50;1.30;;;13.10;99.90;;;;;;1887044;74;21101;-78
2022/09/27 02:43:40;;;;;;;3.55;1.82;;;12.80;99.90;;;;;;1884861;74;21193;-79
2022/09/27 02:49:49;;;;;;;2.98;1.90;;;12.40;99.90;;;;;;1941943;72;22254;-78
2022/09/27 02:53:06;;;;;;;2.17;1.57;;;12.30;99.90;;;;;;1890791;75;21105;-81
2022/09/27 02:56:00;;;;;;;2.33;1.70;;;12.20;99.90;;;;;;1902226;74;21128;-79
2022/09/27 02:59:00;;;;;;;1.82;1.30;;;12.20;99.90;;;;;;1875576;75;21440;-80
2022/09/27 03:02:13;;;;;;;2.12;1.10;;;12.20;99.90;;;;;;1906137;75;21101;-80
2022/09/27 03:08:05;;;;;;;1.95;0.90;;;12.30;99.90;;;;;;1941764;72;22253;-81
2022/09/27 03:10:56;;;;;;;1.10;0.62;;;12.30;99.90;;;;;;1910455;74;21105;-80
2022/09/27 03:13:47;;;;;;;1.67;1.05;;;12.30;99.90;;;;;;1905203;75;21639;-80
2022/09/27 03:16:39;;;;;;;2.12;1.00;;;12.30;99.90;;;;;;1900621;75;21106;-79
2022/09/27 03:19:33;;;;;;;0.80;0.68;;;12.20;99.90;;;;;;1896558;75;21151;-79
2022/09/27 03:22:42;;;;;;;1.57;0.50;;;12.20;99.90;;;;;;1886371;75;21117;-80
2022/09/27 03:25:33;;;;;;;1.52;0.90;;;12.20;99.90;;;;;;1906259;75;21566;-79
2022/09/27 03:28:28;;;;;;;1.00;0.72;;;12.10;99.90;;;;;;1902062;75;21086;-79
2022/09/27 03:31:19;;;;;;;2.27;0.60;;;12.10;99.90;;;;;;1897388;75;21475;-80
2022/09/27 03:34:29;;;;;;;2.17;0.70;;;12.10;99.90;;;;;;1890929;75;21160;-80
2022/09/27 03:37:20;;;;;;;1.65;0.60;;;12.10;99.90;;;;;;1898152;75;21160;-79
2022/09/27 03:40:12;;;;;;;1.62;0.70;;;12.10;99.90;;;;;;1905191;75;21176;-80
2022/09/27 03:45:44;;;;;;;2.20;0.70;;;12.20;99.90;;;;;;1925651;72;22260;-78
2022/09/27 03:48:36;;;;;;;4.30;0.72;;;12.20;99.90;;;;;;1903099;75;21062;-81
2022/09/27 03:51:27;;;;;;;2.92;0.78;;;12.30;99.90;;;;;;1906901;75;21160;-79
2022/09/27 03:54:19;;;;;;;3.35;0.70;;;12.30;99.90;;;;;;1893877;75;21043;-78
2022/09/27 03:57:10;;;;;;;2.58;0.72;;;12.30;99.90;;;;;;1901172;75;21101;-78
2022/09/27 04:02:40;;;;;;;5.85;0.82;;;12.40;99.90;;;;;;1937695;72;22227;-79
2022/09/27 04:08:31;;;;;;;4.15;0.95;;;12.40;99.90;;;;;;1939278;72;22235;-78
2022/09/27 04:11:22;;;;;;;4.50;1.05;;;12.50;99.90;;;;;;1904196;74;21117;-80
2022/09/27 04:14:14;;;;;;;2.27;0.80;;;12.50;99.90;;;;;;1918767;74;21057;-78
2022/09/27 04:19:45;;;;;;;1.82;0.80;;;12.60;99.90;;;;;;1956349;72;22257;-78
2022/09/27 04:22:40;;;;;;;1.20;0.90;;;12.60;99.90;;;;;;1916026;73;21164;-79
2022/09/27 04:25:32;;;;;;;1.10;0.93;;;12.60;99.90;;;;;;1913327;74;21087;-81
2022/09/27 04:28:25;;;;;;;1.85;1.00;;;12.60;99.90;;;;;;1905428;75;21118;-79
2022/09/27 04:31:16;;;;;;;2.62;1.00;;;12.60;99.90;;;;;;1909300;74;21382;-78
2022/09/27 04:34:12;;;;;;;3.58;1.20;;;12.60;99.90;;;;;;1909009;74;21129;-78
2022/09/27 04:37:05;;;;;;;1.47;0.90;;;12.70;99.90;;;;;;1906134;74;21096;-79
2022/09/27 04:40:01;;;;;;;1.77;0.80;;;12.70;99.90;;;;;;1908786;74;21135;-78
2022/09/27 04:42:53;;;;;;;1.20;1.00;;;12.70;99.90;;;;;;1905014;74;21113;-79
2022/09/27 04:45:45;;;;;;;1.10;0.90;;;12.70;99.90;;;;;;1901288;74;21052;-79
2022/09/27 04:48:36;;;;;;;2.25;1.00;;;12.70;99.90;;;;;;1903718;74;21052;-78
2022/09/27 04:51:28;;;;;;;3.00;1.00;;;12.70;99.90;;;;;;1906021;74;21120;-78
2022/09/27 04:54:20;;;;;;;1.40;0.90;;;12.70;99.90;;;;;;1905253;74;21114;-80
2022/09/27 04:57:13;;;;;;;1.45;0.82;;;12.70;99.90;;;;;;1917789;74;21177;-79
2022/09/27 05:00:07;;;;;;;1.00;0.88;;;12.60;99.90;;;;;;1920565;74;21111;-79
2022/09/27 05:03:00;;;;;;;2.10;1.25;;;12.70;99.90;;;;;;1918433;74;21051;-79
2022/09/27 05:05:59;;;;;;;0.70;0.60;;;12.70;99.90;;;;;;1910869;74;21067;-79
2022/09/27 05:08:51;;;;;;;3.17;0.62;;;12.70;99.90;;;;;;1905126;75;21125;-79
2022/09/27 05:11:43;;;;;;;1.82;0.82;;;12.80;99.90;;;;;;1915925;74;21067;-79
2022/09/27 05:17:27;;;;;;;3.08;1.30;;;12.80;99.90;;;;;;1935290;72;22213;-78
2022/09/27 05:23:02;;;;;;;3.47;1.30;;;12.80;99.90;;;;;;1944060;72;22157;-79
2022/09/27 05:25:55;;;;;;;2.80;1.57;;;12.80;99.90;;;;;;1916881;75;21114;-80
2022/09/27 05:28:47;;;;;;;2.27;1.50;;;12.80;99.90;;;;;;1916910;75;21123;-79
2022/09/27 05:31:39;;;;;;;2.35;1.70;;;12.80;99.90;;;;;;1931123;73;21114;-79
2022/09/27 05:34:31;;;;;;;2.12;1.70;;;12.80;99.90;;;;;;1880531;75;21185;-80
2022/09/27 05:40:05;;;;;;;2.00;1.80;;;12.70;99.90;;;;;;1945517;72;22187;-80
2022/09/27 05:42:58;;;;;;;1.95;1.65;;;12.80;99.90;;;;;;1920029;73;21113;-79
2022/09/27 05:48:29;;;;;;;7.60;2.58;;;12.80;99.90;;;;;;1929440;72;22169;-81
2022/09/27 05:51:21;;;;;;;4.28;2.30;;;12.80;99.90;;;;;;1906216;75;21129;-79
2022/09/27 05:54:13;;;;;;;3.58;2.42;;;12.80;99.90;;;;;;1887707;75;21086;-79
2022/09/27 05:57:07;;;;;;;2.90;2.17;;;12.90;99.90;;;;;;1910184;75;21100;-80
2022/09/27 06:00:11;;;;;;;2.33;1.92;;;12.90;99.90;;;;;;1896577;75;21514;-79
2022/09/27 06:03:06;;;;;;;3.00;2.10;;;12.90;99.90;;;;;;1908045;75;21126;-79
2022/09/27 06:06:18;;;;;;;2.08;1.07;;;12.80;99.90;;;;;;1876486;74;21109;-79
2022/09/27 06:09:12;;;;;;;3.05;1.05;;;12.90;99.90;;;;;;1897873;75;21110;-79
2022/09/27 06:12:04;;;;;;;1.62;0.57;;;12.80;99.90;;;;;;1906580;75;21110;-79
2022/09/27 06:17:38;;;;;;;3.45;0.90;;;12.80;99.90;;;;;;1936807;72;22190;-78
2022/09/27 06:23:13;;;;;;;6.62;1.17;;;12.70;99.90;;;;;;1943863;72;22157;-81
2022/09/27 06:26:07;;;;;;;9.75;1.40;;;12.60;99.90;;;;;;1905108;75;21102;-80
2022/09/27 06:29:17;;;;;;;10.13;2.17;;;12.60;99.90;;;;;;1886585;75;21102;-80
2022/09/27 06:32:12;;;;;;;3.83;1.20;;;12.60;99.90;;;;;;1883287;75;21110;-79
2022/09/27 06:35:11;;;;;;;3.33;1.12;;;12.60;99.90;;;;;;1899983;75;21546;-80
2022/09/27 06:38:05;;;;;;;4.85;0.98;;;12.60;99.90;;;;;;1886095;75;21129;-79
2022/09/27 06:40:59;;;;;;;5.22;1.40;;;12.50;99.90;;;;;;1874618;75;21124;-79
2022/09/27 06:43:51;;;;;;;3.30;1.10;;;12.60;99.90;;;;;;1884199;75;21550;-79
2022/09/27 06:47:01;;;;;;;4.83;1.00;;;12.60;99.90;;;;;;1903586;75;21062;-80
2022/09/27 06:52:49;;;;;;;2.22;1.10;;;12.60;99.90;;;;;;1945086;72;22238;-80
2022/09/27 06:55:42;;;;;;;3.83;1.80;;;12.70;99.90;;;;;;1924455;73;21162;-80
2022/09/27 07:01:45;;;;;;;3.30;0.98;;;12.90;99.90;;;;;;1923188;73;21183;-79
2022/09/27 07:04:55;;;;;;;2.92;1.22;;;13.10;99.90;;;;;;1918890;73;21526;-81
2022/09/27 07:07:55;;;;;;;3.60;1.40;;;13.20;99.90;;;;;;1919370;73;21510;-80
2022/09/27 07:13:22;;;;;;;1.60;1.20;;;13.40;99.90;;;;;;1932854;72;22161;-80
2022/09/27 07:16:15;;;;;;;3.37;1.30;;;13.50;99.90;;;;;;1907129;75;21199;-81
2022/09/27 07:19:10;;;;;;;3.95;1.85;;;13.60;99.90;;;;;;1897418;75;21122;-79
2022/09/27 07:22:00;;;;;;;4.05;1.70;;;13.70;99.90;;;;;;1895054;75;21195;-80
2022/09/27 07:24:52;;;;;;;3.25;1.37;;;13.80;99.90;;;;;;1891587;75;21124;-79
2022/09/27 07:27:45;;;;;;;5.03;2.80;;;13.80;99.90;;;;;;1884452;75;21106;-79
2022/09/27 07:30:38;;;;;;;4.67;2.45;;;13.90;99.90;;;;;;1890275;75;21054;-79
2022/09/27 07:33:31;;;;;;;4.53;1.80;;;13.80;99.90;;;;;;1891685;75;21023;-79
2022/09/27 07:36:24;;;;;;;2.70;1.87;;;13.80;99.90;;;;;;1896685;75;21120;-80
2022/09/27 07:39:16;;;;;;;4.53;1.10;;;13.90;99.90;;;;;;1896448;75;21066;-80
2022/09/27 07:42:08;;;;;;;3.60;1.80;;;13.90;99.90;;;;;;1895887;75;21155;-79
2022/09/27 07:47:42;;;;;;;1.98;1.10;;;13.90;99.90;;;;;;1919635;72;22317;-79
2022/09/27 07:53:15;;;;;;;3.42;0.80;;;14.00;99.90;;;;;;1939276;72;22191;-81
2022/09/27 07:56:14;;;;;;;2.37;1.30;;;14.10;99.90;;;;;;1886548;75;21188;-80
2022/09/27 07:59:05;;;;;;;2.42;0.80;;;13.90;99.90;;;;;;1884802;75;21592;-79
2022/09/27 08:01:57;;;;;;;4.67;1.45;;;14.00;99.90;;;;;;1900929;75;21080;-79
2022/09/27 08:07:29;;;;;;;3.50;0.90;;;13.70;99.90;;;;;;1929459;72;22711;-78
2022/09/27 08:13:04;;;;;;;3.47;1.20;;;13.90;99.90;;;;;;1949717;72;22228;-81
2022/09/27 08:15:58;;;;;;;3.98;1.02;;;13.80;99.90;;;;;;1938470;73;21051;-81
2022/09/27 08:18:50;;;;;;;3.15;1.15;;;13.90;99.90;;;;;;1917249;73;21102;-79
2022/09/27 08:21:43;;;;;;;4.30;1.40;;;13.80;99.90;;;;;;1911702;73;21087;-80
2022/09/27 08:24:36;;;;;;;3.47;0.90;;;13.80;99.90;;;;;;1940881;73;21114;-79
2022/09/27 08:27:29;;;;;;;3.17;2.00;;;13.80;99.90;;;;;;1918020;73;21664;-80
2022/09/27 08:30:23;;;;;;;4.17;1.60;;;14.00;99.90;;;;;;1929923;73;21132;-79
2022/09/27 08:35:55;;;;;;;4.22;2.37;;;14.20;99.90;;;;;;1945338;72;22179;-78
2022/09/27 08:38:49;;;;;;;3.02;2.33;;;14.30;99.90;;;;;;1902439;75;21045;-78
2022/09/27 08:44:28;;;;;;;4.35;1.95;;;14.20;99.90;;;;;;1942445;72;22299;-80
2022/09/27 08:47:32;;;;;;;4.20;1.50;;;14.20;99.90;;;;;;1884296;75;21067;-80
2022/09/27 08:53:07;;;;;;;5.40;1.20;;;14.10;99.90;;;;;;1933582;72;22291;-80
2022/09/27 08:58:45;;;;;;;3.12;0.80;;;14.10;99.90;;;;;;1942237;72;22207;-79
2022/09/27 09:01:41;;;;;;;3.35;1.00;;;14.00;99.90;;;;;;1911036;74;21124;-78
2022/09/27 09:07:39;;;;;;;7.28;1.85;;;14.30;99.90;;;;;;1929551;72;22123;-80
2022/09/27 09:13:14;;;;;;;3.65;1.00;;;14.70;99.90;;;;;;1927629;72;22249;-81
2022/09/27 09:19:04;;;;;;;3.85;1.00;;;14.50;99.90;;;;;;1935802;72;22228;-80
2022/09/27 09:22:08;;;;;;;2.35;0.75;;;14.50;99.90;;;;;;1907812;75;21122;-78
2022/09/27 09:25:14;;;;;;;6.17;1.00;;;14.40;99.90;;;;;;1904472;75;21094;-79
2022/09/27 09:28:14;;;;;;;3.33;0.80;;;14.30;99.90;;;;;;1893800;75;21112;-79
2022/09/27 09:31:09;;;;;;;4.03;1.02;;;14.10;99.90;;;;;;1909475;75;21091;-78
2022/09/27 09:34:04;;;;;;;3.83;0.80;;;14.00;99.90;;;;;;1913839;75;21095;-78
2022/09/27 09:39:39;;;;;;;3.58;0.80;;;13.70;99.90;;;;;;1959822;72;22235;-80
2022/09/27 09:42:34;;;;;;;4.62;0.68;;;13.60;99.90;;;;;;1933660;74;21067;-81
2022/09/27 09:45:30;;;;;;;4.45;1.27;;;13.40;99.90;;;;;;1932193;74;21168;-78
2022/09/27 09:48:26;;;;;;;5.28;0.62;;;13.70;99.90;;;;;;1935435;74;21101;-81
2022/09/27 09:51:21;;;;;;;1.52;0.53;;;13.80;99.90;;;;;;1926588;74;21083;-79
2022/09/27 09:54:20;;;;;;;2.25;1.02;;;13.90;99.90;;;;;;1915094;74;21136;-78
2022/09/27 09:59:57;;;;;;;3.08;1.20;;;13.90;99.90;;;;;;1946173;72;22585;-81
2022/09/27 10:02:52;;;;;;;2.58;1.07;;;13.90;99.90;;;;;;1919986;73;21095;-78
2022/09/27 10:08:24;;;;;;;3.33;1.15;;;14.60;99.90;;;;;;1950971;72;22178;-79
2022/09/27 10:11:22;;;;;;;2.30;0.85;;;14.90;99.90;;;;;;1942530;73;21063;-78
2022/09/27 10:14:18;;;;;;;3.27;0.88;;;15.20;99.90;;;;;;1926342;73;21537;-79
2022/09/27 10:17:15;;;;;;;4.62;1.10;;;15.40;99.90;;;;;;1919826;73;21098;-78
2022/09/27 10:22:48;;;;;;;2.70;0.70;;;15.60;99.90;;;;;;1941599;72;22173;-79
2022/09/27 10:25:52;;;;;;;3.37;0.90;;;15.60;99.90;;;;;;1900878;75;21505;-78
2022/09/27 10:28:57;;;;;;;2.25;0.95;;;15.40;99.90;;;;;;1887313;75;21078;-79
2022/09/27 10:31:54;;;;;;;1.85;0.50;;;15.20;99.90;;;;;;1905273;75;21055;-79
2022/09/27 10:37:27;;;;;;;4.58;1.12;;;14.90;99.90;;;;;;1942865;72;22780;-78
2022/09/27 10:40:32;;;;;;;2.50;0.70;;;14.90;99.90;;;;;;1915831;73;21188;-78
2022/09/27 10:43:31;;;;;;;6.00;1.25;;;14.90;99.90;;;;;;1917331;73;21150;-78
2022/09/27 10:46:40;;;;;;;6.75;1.15;;;14.80;99.90;;;;;;1917040;73;21160;-80
2022/09/27 10:52:35;;;;;;;4.58;1.22;;;14.60;99.90;;;;;;1931873;72;27893;-81
2022/09/27 10:58:18;;;;;;;3.33;0.80;;;14.40;99.90;;;;;;1932766;72;22126;-78
2022/09/27 11:01:11;;;;;;;2.80;0.80;;;14.60;99.90;;;;;;1904877;75;21106;-78
2022/09/27 11:04:20;;;;;;;3.62;0.60;;;14.60;99.90;;;;;;1893204;75;21062;-78
2022/09/27 11:07:18;;;;;;;3.40;0.72;;;14.80;99.90;;;;;;1911597;75;21615;-78
2022/09/27 11:10:26;;;;;;;2.85;0.80;;;14.90;99.90;;;;;;1890692;75;21055;-78
2022/09/27 11:16:18;;;;;;;2.55;0.88;;;15.20;99.90;;;;;;1952307;72;22686;-80
2022/09/27 11:19:16;;;;;;;1.90;0.80;;;15.40;99.90;;;;;;1922915;74;21172;-78
2022/09/27 11:22:16;;;;;;;2.45;0.82;;;15.50;99.90;;;;;;1905486;74;21111;-79
2022/09/27 11:25:15;;;;;;;1.60;0.70;;;15.70;99.90;;;;;;1935071;74;21052;-78
2022/09/27 11:28:13;;;;;;;2.72;0.80;;;16.00;99.90;;;;;;1918039;74;21103;-79
2022/09/27 11:31:10;;;;;;;1.70;0.40;;;16.20;99.90;;;;;;1927236;74;21058;-79
2022/09/27 11:34:17;;;;;;;2.05;0.57;;;16.20;99.90;;;;;;1936055;73;21163;-79
2022/09/27 11:43:05;;;;;;;4.47;1.00;;;15.80;99.90;;;;;;1924935;72;22252;-79
2022/09/27 11:48:51;;;;;;;2.87;0.40;;;15.60;99.90;;;;;;1954168;72;22197;-81
2022/09/27 11:52:02;;;;;;;4.70;1.10;;;15.60;99.90;;;;;;1890168;75;21059;-79
2022/09/27 11:57:39;;;;;;;2.77;0.55;;;15.70;99.90;;;;;;1956450;72;22133;-80
2022/09/27 12:03:28;;;;;;;0.72;0.30;;;16.10;99.90;;;;;;1938343;72;22252;-80
2022/09/27 12:06:23;;;;;;;1.62;0.70;;;16.50;99.90;;;;;;1909985;74;21134;-78
2022/09/27 12:09:18;;;;;;;2.83;0.60;;;16.80;99.90;;;;;;1884117;75;21185;-77
2022/09/27 12:12:14;;;;;;;3.45;0.70;;;16.70;99.90;;;;;;1905596;75;21122;-79
2022/09/27 12:17:54;;;;;;;1.12;0.40;;;17.10;99.90;;;;;;1912345;72;22291;-78
2022/09/27 12:20:45;;;;;;;2.15;0.85;;;17.00;99.90;;;;;;1905337;75;21572;-78
2022/09/27 12:23:41;;;;;;;1.42;0.50;;;17.00;99.90;;;;;;1900705;75;21106;-78
2022/09/27 12:26:40;;;;;;;1.32;0.50;;;17.00;99.90;;;;;;1897445;74;21223;-78
2022/09/27 12:32:18;;;;;;;1.50;0.70;;;17.40;99.90;;;;;;1932928;72;22768;-80
2022/09/27 12:35:15;;;;;;;1.57;0.50;;;17.40;99.90;;;;;;1939859;73;21116;-79
2022/09/27 12:38:11;;;;;;;1.35;0.37;;;17.30;99.90;;;;;;1919580;73;21101;-78
2022/09/27 12:41:07;;;;;;;1.87;0.45;;;17.20;99.90;;;;;;1917316;73;21216;-78
2022/09/27 12:44:01;;;;;;;2.92;1.02;;;16.90;99.90;;;;;;1935917;73;21534;-78
2022/09/27 12:47:00;;;;;;;1.27;0.70;;;16.90;99.90;;;;;;1915972;74;21514;-78
2022/09/27 12:52:36;;;;;;;4.45;1.00;;;16.80;99.90;;;;;;1934192;72;22274;-80
2022/09/27 12:59:20;;;;;;;3.50;0.70;;;16.30;99.90;;;;;;1935760;72;22212;-80
2022/09/27 13:02:50;;;;;;;2.62;0.68;;;16.10;99.90;;;;;;1900716;75;21566;-78
2022/09/27 13:06:12;;;;;;;3.05;0.80;;;16.00;99.90;;;;;;1848115;75;21568;-79
2022/09/27 13:09:44;;;;;;;2.83;0.95;;;15.80;99.90;;;;;;1895477;75;21051;-79
2022/09/27 13:12:37;;;;;;;6.65;0.90;;;15.70;99.90;;;;;;1876777;75;21082;-78
2022/09/27 13:18:24;;;;;;;3.33;1.00;;;15.30;99.90;;;;;;1942990;72;22193;-80
2022/09/27 13:23:53;;;;;;;5.37;1.32;;;15.10;99.90;;;;;;1933696;72;22153;-80
2022/09/27 13:29:32;;;;;;;4.35;1.02;;;15.00;99.90;;;;;;1908255;72;22195;-78
2022/09/27 13:32:27;;;;;;;2.22;0.70;;;14.90;99.90;;;;;;1893890;75;21070;-79
2022/09/27 13:38:20;;;;;;;6.28;2.08;;;15.40;99.90;;;;;;1931433;72;22680;-78
2022/09/27 13:44:04;;;;;;;2.62;0.60;;;15.90;99.90;;;;;;1947661;72;22168;-78
2022/09/27 13:47:00;;;;;;;1.65;0.60;;;15.90;99.90;;;;;;1907824;74;21141;-77
2022/09/27 13:52:36;;;;;;;1.87;0.37;;;16.20;99.90;;;;;;1945509;72;22302;-78
2022/09/27 13:55:47;;;;;;;3.22;0.62;;;16.40;99.90;;;;;;1927460;73;21093;-79
2022/09/27 13:58:51;;;;;;;3.33;0.53;;;16.40;99.90;;;;;;1928205;73;21086;-78
2022/09/27 14:02:01;;;;;;;3.77;0.62;;;16.70;99.90;;;;;;1868019;73;21121;-78
2022/09/27 14:07:43;;;;;;;2.60;1.17;;;17.80;99.90;;;;;;1964537;72;22137;-78
2022/09/27 14:10:38;;;;;;;1.37;0.50;;;19.30;99.90;;;;;;1926895;73;21059;-78
2022/09/27 14:13:31;;;;;;;2.42;0.40;;;21.70;99.90;;;;;;1937716;73;21133;-78
2022/09/27 14:16:25;;;;;;;1.05;0.40;;;22.10;99.90;;;;;;1928856;73;21063;-78
2022/09/27 14:19:20;;;;;;;2.02;0.30;;;22.20;99.90;;;;;;1924043;74;21102;-78
2022/09/27 14:22:16;;;;;;;1.25;0.50;;;23.00;99.90;;;;;;1928396;74;21039;-78
2022/09/27 14:28:00;;;;;;;2.20;0.30;;;23.40;99.90;;;;;;1930787;72;22231;-79
2022/09/27 14:31:15;;;;;;;3.37;0.65;;;23.00;99.90;;;;;;1911221;74;21096;-79
2022/09/27 14:34:24;;;;;;;2.58;0.50;;;21.60;99.90;;;;;;1907447;73;21079;-78
2022/09/27 14:37:25;;;;;;;2.17;0.60;;;20.70;99.90;;;;;;1897797;75;21060;-78
2022/09/27 14:40:22;;;;;;;2.05;0.78;;;20.10;99.90;;;;;;1890241;75;21075;-78
2022/09/27 14:46:01;;;;;;;1.52;0.35;;;19.60;99.90;;;;;;1945864;72;22208;-79
2022/09/27 14:48:54;;;;;;;1.57;0.40;;;19.70;99.90;;;;;;1907192;75;21153;-79
2022/09/27 14:51:52;;;;;;;5.65;1.20;;;19.80;99.90;;;;;;1896210;75;21204;-79
2022/09/27 14:54:46;;;;;;;2.35;0.90;;;19.50;99.90;;;;;;1902564;75;21054;-79
2022/09/27 14:57:39;;;;;;;2.50;0.50;;;18.90;99.90;;;;;;1884267;75;21126;-79
2022/09/27 15:03:18;;;;;;;0.80;0.47;;;18.30;99.90;;;;;;1930858;72;22183;-78
2022/09/27 15:06:11;;;;;;;2.05;0.50;;;18.00;99.90;;;;;;1907402;74;21113;-79
2022/09/27 15:09:12;;;;;;;2.52;0.62;;;17.90;99.90;;;;;;1884206;75;21056;-79
2022/09/27 15:12:07;;;;;;;2.80;0.50;;;17.60;99.90;;;;;;1897323;75;21112;-78
2022/09/27 15:15:00;;;;;;;3.12;0.60;;;17.40;99.90;;;;;;1905128;75;21134;-78
2022/09/27 15:20:32;;;;;;;0.93;0.50;;;17.10;99.90;;;;;;1953717;72;22144;-79
2022/09/27 15:23:30;;;;;;;1.37;0.60;;;17.00;99.90;;;;;;1917398;75;21580;-78
2022/09/27 15:26:24;;;;;;;1.07;0.50;;;16.90;99.90;;;;;;1917308;75;21055;-78
2022/09/27 15:29:21;;;;;;;2.30;0.65;;;16.80;99.90;;;;;;1917294;75;21213;-78
2022/09/27 15:32:17;;;;;;;1.75;0.78;;;16.90;99.90;;;;;;1940415;73;21552;-78
2022/09/27 15:37:47;;;;;;;1.52;0.50;;;16.80;99.90;;;;;;1959360;72;22240;-78
2022/09/27 15:43:52;;;;;;;3.55;1.60;;;16.90;99.90;;;;;;1944296;72;22210;-78
2022/09/27 15:46:45;;;;;;;2.35;1.40;;;17.00;99.90;;;;;;1917193;73;21225;-80
2022/09/27 15:49:37;;;;;;;1.25;0.60;;;17.10;99.90;;;;;;1930034;73;21194;-79
2022/09/27 15:52:43;;;;;;;2.10;0.60;;;17.10;99.90;;;;;;1918657;73;21169;-79
2022/09/27 15:55:37;;;;;;;2.80;1.00;;;17.10;99.90;;;;;;1925054;73;21447;-78
2022/09/27 15:58:30;;;;;;;2.30;0.70;;;16.90;99.90;;;;;;1934245;73;21063;-78
2022/09/27 16:01:22;;;;;;;1.82;0.70;;;16.90;99.90;;;;;;1917209;75;21167;-78
2022/09/27 16:04:13;;;;;;;2.77;1.12;;;16.60;99.90;;;;;;1917028;75;21172;-79
2022/09/27 16:07:08;;;;;;;1.47;0.65;;;16.40;99.90;;;;;;1918490;73;21090;-79
2022/09/27 16:12:38;;;;;;;4.37;0.68;;;16.10;99.90;;;;;;1934793;72;22158;-79
2022/09/27 16:18:18;;;;;;;4.53;0.60;;;16.10;99.90;;;;;;1938054;72;22129;-79
2022/09/27 16:21:10;;;;;;;3.10;0.50;;;16.10;99.90;;;;;;1911654;73;21124;-78
2022/09/27 16:24:03;;;;;;;1.72;0.50;;;16.00;99.90;;;;;;1892390;75;21611;-78
2022/09/27 16:29:34;;;;;;;2.98;0.68;;;16.00;99.90;;;;;;1931770;72;22213;-80
2022/09/27 16:32:26;;;;;;;3.65;0.82;;;16.00;99.90;;;;;;1875176;75;21433;-79
2022/09/27 16:35:19;;;;;;;3.02;1.12;;;15.90;99.90;;;;;;1882855;75;21633;-79
2022/09/27 16:38:11;;;;;;;3.30;1.17;;;15.70;99.90;;;;;;1875391;75;21144;-80
2022/09/27 16:41:03;;;;;;;3.50;1.82;;;15.60;99.90;;;;;;1889439;75;21698;-79
2022/09/27 16:43:54;;;;;;;3.27;1.20;;;15.50;99.90;;;;;;1893307;75;21048;-80
2022/09/27 16:46:46;;;;;;;4.05;1.40;;;15.50;99.90;;;;;;1880368;75;21091;-79
2022/09/27 16:52:48;;;;;;;2.30;1.00;;;15.40;99.90;;;;;;1880572;75;21168;-79
2022/09/27 16:58:19;;;;;;;1.82;0.68;;;15.40;99.90;;;;;;1927637;72;22330;-78
2022/09/27 17:01:10;;;;;;;2.08;0.70;;;15.30;99.90;;;;;;1908299;74;21435;-79
2022/09/27 17:04:02;;;;;;;2.33;0.50;;;15.20;99.90;;;;;;1902461;75;21082;-79
2022/09/27 17:06:54;;;;;;;1.55;0.80;;;15.20;99.90;;;;;;1903844;75;21613;-78
2022/09/27 17:09:45;;;;;;;2.30;0.68;;;15.10;99.90;;;;;;1900093;75;21093;-78
2022/09/27 17:12:37;;;;;;;1.85;0.60;;;14.70;99.90;;;;;;1904023;75;21094;-78
2022/09/27 17:18:07;;;;;;;3.08;0.80;;;14.50;99.90;;;;;;1930936;72;22213;-78
2022/09/27 17:21:02;;;;;;;2.10;0.60;;;14.60;99.90;;;;;;1902843;73;21103;-79
2022/09/27 17:23:54;;;;;;;2.92;0.70;;;14.70;99.90;;;;;;1902786;73;21054;-78
2022/09/27 17:26:45;;;;;;;1.70;0.60;;;14.40;99.90;;;;;;1944586;73;21051;-78
2022/09/27 17:29:38;;;;;;;1.47;0.70;;;14.20;99.90;;;;;;1888239;75;21138;-78
2022/09/27 17:32:30;;;;;;;2.50;0.65;;;14.30;99.90;;;;;;1903344;73;21289;-78
2022/09/27 17:35:21;;;;;;;3.25;0.95;;;14.30;99.90;;;;;;1908653;73;21119;-78
2022/09/27 17:38:13;;;;;;;1.67;0.65;;;14.30;99.90;;;;;;1901858;73;21147;-78
2022/09/27 17:43:48;;;;;;;3.05;0.93;;;14.40;99.90;;;;;;1950675;72;22169;-80
2022/09/27 17:46:39;;;;;;;3.10;1.10;;;14.30;99.90;;;;;;1905508;74;21105;-80
2022/09/27 17:55:25;;;;;;;1.98;1.00;;;14.30;99.90;;;;;;1940505;72;22181;-79
2022/09/27 17:58:17;;;;;;;3.20;1.10;;;14.30;99.90;;;;;;1928395;73;21051;-78
2022/09/27 18:01:08;;;;;;;2.62;1.50;;;14.30;99.90;;;;;;1922075;73;21432;-78
2022/09/27 18:04:03;;;;;;;4.15;1.85;;;14.40;99.90;;;;;;1916610;73;21094;-78
2022/09/27 18:06:54;;;;;;;3.50;1.55;;;14.30;99.90;;;;;;1916095;73;21094;-78
2022/09/27 18:09:46;;;;;;;2.00;1.00;;;14.30;99.90;;;;;;1886962;75;21614;-78
2022/09/27 18:12:39;;;;;;;5.53;1.10;;;14.30;99.90;;;;;;1917681;73;21208;-78
2022/09/27 18:15:31;;;;;;;3.98;0.98;;;14.30;99.90;;;;;;1920588;73;21278;-79
2022/09/27 18:18:22;;;;;;;2.60;1.00;;;14.20;99.90;;;;;;1916945;73;21089;-79
2022/09/27 18:21:17;;;;;;;3.05;1.30;;;14.10;99.90;;;;;;1919248;73;21085;-78
2022/09/27 18:24:09;;;;;;;3.22;1.30;;;14.00;99.90;;;;;;1928176;73;21201;-78
2022/09/27 18:27:02;;;;;;;4.30;1.22;;;14.00;99.90;;;;;;1918500;73;21079;-79
2022/09/27 18:30:05;;;;;;;2.92;1.57;;;14.00;99.90;;;;;;1926942;73;21364;-79
2022/09/27 18:32:56;;;;;;;3.60;2.02;;;14.00;99.90;;;;;;1915552;74;21217;-79
2022/09/27 18:35:47;;;;;;;6.90;2.60;;;14.00;99.90;;;;;;1916540;74;21178;-78